createdAt,value
2018-09-02T00:00:31.193Z,17.3
2018-09-02T00:01:31.225Z,17.22
2018-09-02T00:02:31.230Z,17.19
2018-09-02T00:03:31.210Z,17.2
2018-09-02T00:04:31.247Z,17.14
2018-09-02T00:05:31.234Z,17.16
2018-09-02T00:06:31.222Z,17.13
2018-09-02T00:07:31.540Z,17.19
2018-09-02T00:08:31.202Z,17.07
2018-09-02T00:09:31.210Z,17.13
2018-09-02T00:10:31.216Z,17.23
2018-09-02T00:11:31.222Z,17.13
2018-09-02T00:12:31.232Z,17.12
2018-09-02T00:13:31.236Z,17.16
2018-09-02T00:14:31.245Z,17.14
2018-09-02T00:15:31.249Z,17.17
2018-09-02T00:16:31.221Z,17.1
2018-09-02T00:17:31.229Z,17.07
2018-09-02T00:18:31.243Z,17.07
2018-09-02T00:19:31.242Z,17.13
2018-09-02T00:20:31.365Z,17.13
2018-09-02T00:21:31.255Z,17.04
2018-09-02T00:22:31.253Z,17.13
2018-09-02T00:23:31.233Z,17.13
2018-09-02T00:24:31.243Z,17.09
2018-09-02T00:25:31.260Z,17.12
2018-09-02T00:26:31.298Z,17.07
2018-09-02T00:27:31.943Z,17.07
2018-09-02T00:28:31.264Z,17.12
2018-09-02T00:29:31.239Z,17.1
2018-09-02T00:30:31.280Z,17.1
2018-09-02T00:31:31.288Z,17.09
2018-09-02T00:32:31.292Z,17.14
2018-09-02T00:33:31.298Z,17.13
2018-09-02T00:34:31.271Z,17.17
2018-09-02T00:35:31.244Z,17.17
2018-09-02T00:36:31.291Z,17.19
2018-09-02T00:37:31.635Z,17.13
2018-09-02T00:38:31.321Z,17.07
2018-09-02T00:39:31.317Z,17.12
2018-09-02T00:40:31.291Z,17.04
2018-09-02T00:41:31.291Z,17.17
2018-09-02T00:42:48.054Z,17.1
2018-09-02T00:43:48.368Z,17.04
2018-09-02T00:44:48.074Z,17.12
2018-09-02T00:45:48.073Z,17.07
2018-09-02T00:46:48.045Z,16.98
2018-09-02T00:47:48.054Z,17.05
2018-09-02T00:48:48.127Z,17.05
2018-09-02T00:49:48.063Z,17.05
2018-09-02T00:50:48.073Z,17.02
2018-09-02T00:51:48.074Z,16.99
2018-09-02T00:52:48.045Z,17.01
2018-09-02T00:53:48.060Z,17.02
2018-09-02T00:54:48.057Z,16.97
2018-09-02T00:55:48.068Z,17.13
2018-09-02T00:56:48.058Z,17.01
2018-09-02T00:57:48.122Z,16.95
2018-09-02T00:58:48.051Z,16.98
2018-09-02T00:59:48.098Z,17.05
2018-09-02T01:00:48.075Z,17.1
2018-09-02T01:01:48.108Z,16.98
2018-09-02T01:02:48.092Z,17.05
2018-09-02T01:03:48.537Z,16.98
2018-09-02T01:04:48.060Z,17.09
2018-09-02T01:05:48.507Z,17.01
2018-09-02T01:06:48.071Z,17.05
2018-09-02T01:07:48.076Z,16.98
2018-09-02T01:08:48.120Z,17.04
2018-09-02T01:09:48.089Z,16.92
2018-09-02T01:10:48.098Z,17.1
2018-09-02T01:11:48.084Z,17.05
2018-09-02T01:12:48.454Z,16.95
2018-09-02T01:13:48.092Z,17.07
2018-09-02T01:14:48.090Z,16.97
2018-09-02T01:15:48.109Z,16.99
2018-09-02T01:16:48.075Z,16.92
2018-09-02T01:17:48.074Z,16.86
2018-09-02T01:18:48.524Z,16.84
2018-09-02T01:19:48.099Z,16.89
2018-09-02T01:20:48.096Z,16.89
2018-09-02T01:21:48.118Z,16.79
2018-09-02T01:22:48.106Z,16.8
2018-09-02T01:23:48.114Z,16.83
2018-09-02T01:24:48.119Z,16.77
2018-09-02T01:25:48.159Z,16.73
2018-09-02T01:26:48.103Z,16.72
2018-09-02T01:27:48.128Z,16.76
2018-09-02T01:28:48.142Z,16.69
2018-09-02T01:29:48.124Z,16.72
2018-09-02T01:30:48.088Z,16.66
2018-09-02T01:31:48.140Z,16.73
2018-09-02T01:32:48.099Z,16.69
2018-09-02T01:33:48.110Z,16.69
2018-09-02T01:34:48.117Z,16.69
2018-09-02T01:35:48.145Z,16.65
2018-09-02T01:36:48.169Z,16.65
2018-09-02T01:37:48.133Z,16.62
2018-09-02T01:38:48.141Z,16.65
2018-09-02T01:39:48.114Z,16.64
2018-09-02T01:40:48.153Z,16.57
2018-09-02T01:41:48.144Z,16.55
2018-09-02T01:42:48.155Z,16.55
2018-09-02T01:43:48.140Z,16.58
2018-09-02T01:44:48.152Z,16.39
2018-09-02T01:45:48.167Z,16.5
2018-09-02T01:46:48.129Z,16.5
2018-09-02T01:47:48.455Z,16.57
2018-09-02T01:48:48.140Z,16.47
2018-09-02T01:49:48.156Z,16.5
2018-09-02T01:50:48.158Z,16.49
2018-09-02T01:51:48.159Z,16.47
2018-09-02T01:52:48.166Z,16.44
2018-09-02T01:53:48.137Z,16.46
2018-09-02T01:54:48.147Z,16.47
2018-09-02T01:55:48.155Z,16.41
2018-09-02T01:57:52.721Z,16.43
2018-09-02T01:58:05.095Z,16.51
2018-09-02T01:59:04.930Z,16.44
2018-09-02T02:00:05.014Z,16.43
2018-09-02T02:01:05.422Z,16.41
2018-09-02T02:02:04.951Z,16.5
2018-09-02T02:03:04.925Z,16.46
2018-09-02T02:04:04.934Z,16.4
2018-09-02T02:05:04.939Z,16.44
2018-09-02T02:06:04.980Z,16.43
2018-09-02T02:07:04.949Z,16.37
2018-09-02T02:08:04.955Z,16.31
2018-09-02T02:09:04.997Z,16.22
2018-09-02T02:10:04.943Z,16.25
2018-09-02T02:11:04.956Z,16.37
2018-09-02T02:12:04.980Z,16.28
2018-09-02T02:13:04.966Z,16.29
2018-09-02T02:14:04.963Z,16.17
2018-09-02T02:15:05.025Z,16.36
2018-09-02T02:16:04.987Z,16.28
2018-09-02T02:17:05.047Z,16.31
2018-09-02T02:18:04.995Z,16.25
2018-09-02T02:19:04.963Z,16.22
2018-09-02T02:20:05.006Z,16.16
2018-09-02T02:21:04.978Z,16.22
2018-09-02T02:22:04.977Z,16.37
2018-09-02T02:23:05.002Z,16.25
2018-09-02T02:24:04.997Z,16.24
2018-09-02T02:25:04.964Z,16.29
2018-09-02T02:26:04.983Z,16.29
2018-09-02T02:27:04.980Z,16.29
2018-09-02T02:28:05.037Z,16.21
2018-09-02T02:29:05.010Z,16.13
2018-09-02T02:30:05.032Z,16.18
2018-09-02T02:31:05.003Z,16.17
2018-09-02T02:32:04.978Z,16.28
2018-09-02T02:33:04.981Z,16.21
2018-09-02T02:39:42.006Z,16.22
2018-09-02T02:40:41.856Z,16.16
2018-09-02T02:41:41.914Z,16.16
2018-09-02T02:42:41.881Z,16.29
2018-09-02T02:43:41.916Z,16.36
2018-09-02T02:44:41.882Z,16.26
2018-09-02T02:45:41.898Z,16.16
2018-09-02T02:46:41.896Z,16.13
2018-09-02T02:47:41.913Z,16.26
2018-09-02T02:48:41.911Z,16.12
2018-09-02T02:49:41.884Z,16.16
2018-09-02T02:50:41.892Z,16.22
2018-09-02T02:51:41.904Z,16.17
2018-09-02T02:52:41.914Z,16.22
2018-09-02T02:53:41.880Z,16.28
2018-09-02T02:54:41.983Z,16.18
2018-09-02T02:55:41.896Z,16.08
2018-09-02T02:56:41.930Z,16.17
2018-09-02T02:57:41.909Z,16.13
2018-09-02T02:58:41.907Z,16.26
2018-09-02T02:59:41.913Z,16.16
2018-09-02T03:00:41.924Z,16.17
2018-09-02T03:01:41.929Z,16.17
2018-09-02T03:02:41.916Z,16.18
2018-09-02T03:03:41.930Z,16.25
2018-09-02T03:04:41.917Z,16.16
2018-09-02T03:05:41.934Z,16.24
2018-09-02T03:06:41.923Z,16.25
2018-09-02T03:07:41.968Z,16.31
2018-09-02T03:08:41.940Z,16.39
2018-09-02T03:09:41.947Z,16.21
2018-09-02T03:10:42.010Z,16.26
2018-09-02T03:11:41.936Z,16.12
2018-09-02T03:12:41.936Z,16.17
2018-09-02T03:13:41.957Z,16.1
2018-09-02T03:14:41.960Z,16.17
2018-09-02T03:15:41.962Z,16.21
2018-09-02T03:16:41.923Z,16.17
2018-09-02T03:17:41.926Z,16.13
2018-09-02T03:18:42.464Z,16.12
2018-09-02T03:19:41.942Z,16.13
2018-09-02T03:20:41.956Z,16.13
2018-09-02T03:21:41.921Z,16.16
2018-09-02T03:22:41.948Z,16.21
2018-09-02T03:23:42.013Z,16.21
2018-09-02T03:24:41.939Z,16.16
2018-09-02T03:25:41.945Z,16.16
2018-09-02T03:26:41.969Z,16.12
2018-09-02T03:27:41.969Z,16.18
2018-09-02T03:35:09.983Z,16.13
2018-09-02T03:35:22.229Z,16.16
2018-09-02T03:36:22.262Z,16.12
2018-09-02T03:37:22.243Z,16.1
2018-09-02T03:38:22.203Z,16.16
2018-09-02T03:39:22.245Z,16.13
2018-09-02T03:40:22.230Z,16.16
2018-09-02T03:41:22.229Z,16.13
2018-09-02T03:42:22.231Z,16.17
2018-09-02T03:43:22.256Z,16.12
2018-09-02T03:44:22.241Z,16.12
2018-09-02T03:45:22.231Z,16.18
2018-09-02T03:46:22.233Z,16.16
2018-09-02T03:47:22.231Z,16.12
2018-09-02T03:48:22.247Z,16.09
2018-09-02T03:49:22.274Z,16.13
2018-09-02T03:50:22.275Z,16.06
2018-09-02T03:51:22.229Z,16.12
2018-09-02T03:52:22.232Z,16.03
2018-09-02T03:53:22.237Z,15.99
2018-09-02T03:54:22.274Z,16.06
2018-09-02T03:55:22.253Z,16
2018-09-02T03:56:22.261Z,16.02
2018-09-02T03:57:22.236Z,16.08
2018-09-02T03:58:22.233Z,16.02
2018-09-02T03:59:22.245Z,16.02
2018-09-02T04:00:22.306Z,15.98
2018-09-02T04:01:22.250Z,15.98
2018-09-02T04:02:22.263Z,16
2018-09-02T04:03:22.258Z,15.96
2018-09-02T04:04:22.268Z,15.98
2018-09-02T04:05:22.274Z,15.96
2018-09-02T04:06:22.298Z,16.05
2018-09-02T04:07:22.255Z,15.99
2018-09-02T04:08:22.269Z,15.96
2018-09-02T04:09:22.266Z,16
2018-09-02T04:10:22.286Z,16.02
2018-09-02T04:11:22.447Z,15.96
2018-09-02T04:12:22.286Z,15.98
2018-09-02T04:13:22.297Z,16.03
2018-09-02T04:14:22.269Z,16
2018-09-02T04:15:22.282Z,16.1
2018-09-02T04:16:22.299Z,16.06
2018-09-02T04:17:22.317Z,16.05
2018-09-02T04:18:22.334Z,16.02
2018-09-02T04:19:22.333Z,16.02
2018-09-02T04:20:22.312Z,16.06
2018-09-02T04:21:22.282Z,16.09
2018-09-02T04:22:22.329Z,16.09
2018-09-02T04:23:22.289Z,16.09
2018-09-02T04:24:22.296Z,15.96
2018-09-02T04:25:22.279Z,16.08
2018-09-02T04:26:22.320Z,16.02
2018-09-02T04:27:22.285Z,16.06
2018-09-02T04:28:22.289Z,16.06
2018-09-02T04:29:22.302Z,15.99
2018-09-02T04:30:22.306Z,15.92
2018-09-02T04:31:22.321Z,15.91
2018-09-02T04:32:22.318Z,16.03
2018-09-02T04:33:22.322Z,15.91
2018-09-02T04:34:22.295Z,16
2018-09-02T04:35:22.333Z,16.06
2018-09-02T04:36:22.319Z,15.96
2018-09-02T04:37:22.323Z,15.96
2018-09-02T04:38:22.354Z,15.99
2018-09-02T04:39:22.329Z,15.99
2018-09-02T04:40:22.336Z,15.99
2018-09-02T04:41:22.382Z,15.92
2018-09-02T04:42:22.315Z,16
2018-09-02T04:43:22.320Z,15.84
2018-09-02T04:44:22.365Z,15.98
2018-09-02T04:45:22.574Z,16
2018-09-02T04:46:22.308Z,16
2018-09-02T04:47:22.311Z,15.92
2018-09-02T04:48:22.320Z,15.91
2018-09-02T04:49:22.363Z,15.92
2018-09-02T04:50:22.543Z,16.02
2018-09-02T04:51:22.353Z,15.88
2018-09-02T04:52:22.359Z,15.91
2018-09-02T04:53:22.353Z,15.99
2018-09-02T04:54:22.497Z,15.98
2018-09-02T04:55:22.383Z,15.9
2018-09-02T04:56:22.344Z,15.91
2018-09-02T04:57:22.343Z,15.91
2018-09-02T04:58:22.384Z,15.98
2018-09-02T04:59:22.400Z,15.9
2018-09-02T05:00:22.541Z,15.88
2018-09-02T05:01:22.381Z,15.88
2018-09-02T05:02:22.393Z,15.87
2018-09-02T05:03:22.351Z,15.94
2018-09-02T05:04:22.393Z,15.81
2018-09-02T05:05:22.370Z,15.87
2018-09-02T05:06:22.337Z,15.85
2018-09-02T05:07:22.355Z,15.73
2018-09-02T05:08:22.349Z,15.72
2018-09-02T05:09:22.359Z,15.73
2018-09-02T05:10:22.415Z,15.72
2018-09-02T05:11:22.399Z,15.73
2018-09-02T05:12:22.376Z,15.63
2018-09-02T05:13:22.384Z,15.67
2018-09-02T05:14:22.397Z,15.51
2018-09-02T05:15:22.511Z,15.59
2018-09-02T05:16:22.370Z,15.57
2018-09-02T05:17:22.389Z,15.55
2018-09-02T05:18:22.384Z,15.65
2018-09-02T05:20:39.942Z,15.66
2018-09-02T05:21:39.642Z,15.6
2018-09-02T05:22:39.628Z,15.52
2018-09-02T05:23:39.622Z,15.55
2018-09-02T05:24:39.628Z,15.52
2018-09-02T05:25:39.661Z,15.51
2018-09-02T05:26:39.611Z,15.37
2018-09-02T05:27:39.604Z,15.57
2018-09-02T05:28:39.660Z,15.45
2018-09-02T05:29:39.622Z,15.44
2018-09-02T05:30:39.626Z,15.48
2018-09-02T05:31:39.654Z,15.37
2018-09-02T05:32:39.639Z,15.37
2018-09-02T05:33:39.693Z,15.51
2018-09-02T05:34:39.625Z,15.37
2018-09-02T05:35:39.640Z,15.35
2018-09-02T05:36:39.748Z,15.37
2018-09-02T05:37:39.635Z,15.29
2018-09-02T05:38:39.643Z,15.22
2018-09-02T05:39:39.667Z,15.35
2018-09-02T05:44:56.965Z,15.33
2018-09-02T05:45:09.534Z,15.29
2018-09-02T05:46:09.223Z,15.27
2018-09-02T05:49:16.000Z,15.27
2018-09-02T05:49:28.223Z,15.27
2018-09-02T05:50:28.238Z,15.23
2018-09-02T05:51:28.228Z,15.25
2018-09-02T05:52:28.197Z,15.23
2018-09-02T05:53:28.241Z,15.25
2018-09-02T05:54:28.245Z,15.22
2018-09-02T05:55:28.310Z,15.25
2018-09-02T05:56:28.211Z,15.12
2018-09-02T05:57:28.319Z,15.25
2018-09-02T05:58:28.237Z,15.25
2018-09-02T05:59:28.212Z,15.29
2018-09-02T06:00:28.214Z,15.15
2018-09-02T06:01:28.257Z,15.3
2018-09-02T06:02:28.228Z,15.33
2018-09-02T06:03:28.271Z,15.26
2018-09-02T06:04:28.216Z,15.29
2018-09-02T06:05:28.280Z,15.26
2018-09-02T06:06:28.233Z,15.27
2018-09-02T06:07:28.243Z,15.35
2018-09-02T06:08:28.235Z,15.35
2018-09-02T06:09:28.275Z,15.32
2018-09-02T06:10:28.248Z,15.3
2018-09-02T06:11:28.310Z,15.32
2018-09-02T06:12:28.243Z,15.29
2018-09-02T06:13:28.235Z,15.19
2018-09-02T06:14:28.240Z,15.35
2018-09-02T06:15:28.243Z,15.39
2018-09-02T06:20:44.256Z,15.36
2018-09-02T06:20:56.884Z,15.43
2018-09-02T06:21:56.854Z,15.26
2018-09-02T06:22:56.895Z,15.35
2018-09-02T06:23:56.870Z,15.43
2018-09-02T06:24:56.875Z,15.39
2018-09-02T06:25:56.861Z,15.36
2018-09-02T06:26:56.886Z,15.47
2018-09-02T06:27:56.882Z,15.39
2018-09-02T06:28:57.003Z,15.39
2018-09-02T06:29:56.989Z,15.39
2018-09-02T06:30:56.881Z,15.44
2018-09-02T06:31:56.910Z,15.41
2018-09-02T06:32:57.023Z,15.47
2018-09-02T06:33:56.865Z,15.45
2018-09-02T06:34:56.884Z,15.39
2018-09-02T06:35:56.985Z,15.47
2018-09-02T06:36:56.922Z,15.51
2018-09-02T06:37:56.901Z,15.48
2018-09-02T06:38:56.918Z,15.54
2018-09-02T06:39:56.909Z,15.48
2018-09-02T06:40:56.884Z,15.39
2018-09-02T06:41:56.880Z,15.45
2018-09-02T06:42:56.957Z,15.5
2018-09-02T06:43:56.909Z,15.44
2018-09-02T06:44:56.989Z,15.48
2018-09-02T06:45:56.986Z,15.48
2018-09-02T06:46:56.890Z,15.45
2018-09-02T06:53:37.511Z,15.59
2018-09-02T06:54:37.467Z,15.57
2018-09-02T06:55:37.459Z,15.62
2018-09-02T06:56:37.459Z,15.6
2018-09-02T06:57:37.475Z,15.52
2018-09-02T06:58:37.599Z,15.55
2018-09-02T06:59:37.477Z,15.55
2018-09-02T07:00:37.448Z,15.54
2018-09-02T07:01:37.476Z,15.57
2018-09-02T07:02:37.501Z,15.55
2018-09-02T07:04:57.281Z,15.5
2018-09-02T07:05:57.250Z,15.52
2018-09-02T07:06:57.343Z,15.52
2018-09-02T07:07:57.265Z,15.51
2018-09-02T07:08:57.262Z,15.52
2018-09-02T07:09:57.277Z,15.59
2018-09-02T07:10:57.262Z,15.48
2018-09-02T07:11:57.363Z,15.48
2018-09-02T07:12:57.282Z,15.57
2018-09-02T07:13:57.322Z,15.47
2018-09-02T07:14:57.281Z,15.59
2018-09-02T07:15:57.320Z,15.52
2018-09-02T07:16:57.292Z,15.52
2018-09-02T07:17:57.321Z,15.52
2018-09-02T07:18:57.364Z,15.5
2018-09-02T07:19:57.319Z,15.51
2018-09-02T07:20:57.277Z,15.52
2018-09-02T07:21:57.304Z,15.5
2018-09-02T07:22:57.291Z,15.54
2018-09-02T07:23:58.652Z,15.65
2018-09-02T07:24:57.311Z,15.57
2018-09-02T07:25:57.317Z,15.63
2018-09-02T07:26:57.291Z,15.57
2018-09-02T07:27:57.297Z,15.55
2018-09-02T07:28:57.294Z,15.66
2018-09-02T07:29:57.339Z,15.65
2018-09-02T07:30:57.343Z,15.73
2018-09-02T07:31:57.292Z,15.66
2018-09-02T07:32:57.317Z,15.66
2018-09-02T07:33:57.324Z,15.72
2018-09-02T07:34:57.355Z,15.7
2018-09-02T07:35:57.308Z,15.73
2018-09-02T07:36:57.319Z,15.76
2018-09-02T07:37:57.368Z,15.8
2018-09-02T07:38:57.345Z,15.69
2018-09-02T07:39:57.299Z,15.8
2018-09-02T07:40:57.346Z,15.91
2018-09-02T07:45:27.743Z,15.92
2018-09-02T07:46:27.406Z,15.88
2018-09-02T07:50:56.520Z,15.9
2018-09-02T07:51:56.530Z,15.91
2018-09-02T07:52:56.553Z,15.94
2018-09-02T07:53:56.512Z,15.94
2018-09-02T07:54:56.545Z,15.92
2018-09-02T07:55:56.512Z,16
2018-09-02T07:56:56.499Z,15.9
2018-09-02T07:57:56.528Z,15.99
2018-09-02T07:58:56.552Z,15.87
2018-09-02T07:59:56.753Z,15.96
2018-09-02T08:00:56.513Z,16.06
2018-09-02T08:01:56.552Z,16.22
2018-09-02T08:02:56.561Z,16.05
2018-09-02T08:03:56.500Z,16.24
2018-09-02T08:04:56.543Z,16.12
2018-09-02T08:05:56.548Z,16.16
2018-09-02T08:06:56.522Z,16.22
2018-09-02T08:07:56.528Z,16.39
2018-09-02T08:08:56.536Z,16.29
2018-09-02T08:09:56.510Z,16.37
2018-09-02T08:10:56.510Z,16.39
2018-09-02T08:11:56.515Z,16.25
2018-09-02T08:12:56.824Z,16.41
2018-09-02T08:13:56.539Z,16.46
2018-09-02T08:14:56.648Z,16.41
2018-09-02T08:15:56.548Z,16.49
2018-09-02T08:16:56.550Z,16.55
2018-09-02T08:17:56.530Z,16.44
2018-09-02T08:18:56.560Z,16.51
2018-09-02T08:19:57.355Z,16.51
2018-09-02T08:20:56.542Z,16.41
2018-09-02T08:21:56.547Z,16.36
2018-09-02T08:22:56.689Z,16.39
2018-09-02T08:23:56.536Z,16.43
2018-09-02T08:24:56.681Z,16.34
2018-09-02T08:25:56.554Z,16.43
2018-09-02T08:26:56.548Z,16.34
2018-09-02T08:27:56.571Z,16.28
2018-09-02T08:28:56.571Z,16.36
2018-09-02T08:29:56.576Z,16.29
2018-09-02T08:30:56.606Z,16.32
2018-09-02T08:31:56.578Z,16.21
2018-09-02T08:32:56.778Z,16.28
2018-09-02T08:33:56.558Z,16.16
2018-09-02T08:34:56.564Z,16.24
2018-09-02T08:35:56.571Z,16.17
2018-09-02T08:36:56.577Z,16.09
2018-09-02T08:37:56.624Z,16.09
2018-09-02T08:38:56.792Z,16.09
2018-09-02T08:39:56.565Z,16.1
2018-09-02T08:40:56.573Z,16.13
2018-09-02T08:41:56.622Z,16.09
2018-09-02T08:42:56.588Z,16.13
2018-09-02T08:43:56.627Z,16.12
2018-09-02T08:44:56.599Z,16.17
2018-09-02T08:45:56.575Z,16.13
2018-09-02T08:51:13.805Z,16.13
2018-09-02T08:51:26.465Z,16.21
2018-09-02T08:52:26.356Z,16.25
2018-09-02T08:53:26.352Z,16.21
2018-09-02T08:54:26.339Z,16.28
2018-09-02T08:55:26.362Z,16.17
2018-09-02T08:56:26.338Z,16.32
2018-09-02T08:57:26.375Z,16.18
2018-09-02T08:58:26.382Z,16.16
2018-09-02T08:59:26.349Z,16.18
2018-09-02T09:00:26.357Z,16.18
2018-09-02T09:01:26.329Z,16.18
2018-09-02T09:02:26.374Z,16.34
2018-09-02T09:03:26.373Z,16.18
2018-09-02T09:04:26.349Z,16.29
2018-09-02T09:05:26.366Z,16.43
2018-09-02T09:06:26.327Z,16.32
2018-09-02T09:07:26.504Z,16.32
2018-09-02T09:08:26.878Z,16.34
2018-09-02T09:09:26.388Z,16.41
2018-09-02T09:10:26.360Z,16.34
2018-09-02T09:11:26.360Z,16.44
2018-09-02T09:12:26.416Z,16.44
2018-09-02T09:13:26.378Z,16.46
2018-09-02T09:14:26.353Z,16.32
2018-09-02T09:15:26.355Z,16.44
2018-09-02T09:16:26.468Z,16.41
2018-09-02T09:17:26.367Z,16.46
2018-09-02T09:18:26.486Z,16.43
2018-09-02T09:19:26.342Z,16.47
2018-09-02T09:20:26.656Z,16.5
2018-09-02T09:21:26.473Z,16.55
2018-09-02T09:22:26.408Z,16.54
2018-09-02T09:23:26.374Z,16.55
2018-09-02T09:24:26.377Z,16.62
2018-09-02T09:25:26.401Z,16.69
2018-09-02T09:26:26.365Z,16.66
2018-09-02T09:27:26.362Z,16.66
2018-09-02T09:28:26.408Z,16.61
2018-09-02T09:29:26.378Z,16.73
2018-09-02T09:30:26.425Z,16.83
2018-09-02T09:31:26.402Z,16.84
2018-09-02T09:32:27.131Z,16.91
2018-09-02T09:33:26.367Z,16.87
2018-09-02T09:34:26.382Z,16.94
2018-09-02T09:35:26.428Z,17.04
2018-09-02T09:36:26.486Z,17.02
2018-09-02T09:37:26.532Z,17.02
2018-09-02T09:38:26.336Z,16.99
2018-09-02T09:39:26.374Z,16.98
2018-09-02T09:40:26.417Z,17.13
2018-09-02T09:41:26.397Z,17.16
2018-09-02T09:42:26.393Z,17.14
2018-09-02T09:43:26.482Z,17.01
2018-09-02T09:44:26.484Z,17.02
2018-09-02T09:45:26.410Z,17.07
2018-09-02T09:46:26.416Z,16.94
2018-09-02T09:47:26.424Z,17.1
2018-09-02T09:48:26.410Z,17.13
2018-09-02T09:49:26.407Z,17.17
2018-09-02T09:50:26.443Z,17.14
2018-09-02T09:51:26.518Z,17.1
2018-09-02T09:52:26.432Z,17.09
2018-09-02T09:55:33.749Z,17.07
2018-09-02T09:55:46.104Z,17.14
2018-09-02T09:56:46.042Z,17.13
2018-09-02T09:57:45.992Z,17.2
2018-09-02T09:58:46.027Z,17.09
2018-09-02T09:59:46.037Z,17.16
2018-09-02T10:00:46.034Z,17.12
2018-09-02T10:01:46.059Z,17.12
2018-09-02T10:02:46.049Z,17.16
2018-09-02T10:03:46.175Z,17.2
2018-09-02T10:04:46.037Z,17.19
2018-09-02T10:05:45.999Z,17.27
2018-09-02T10:06:46.005Z,17.14
2018-09-02T10:07:46.025Z,17.14
2018-09-02T10:08:46.739Z,17.05
2018-09-02T10:09:46.030Z,17.07
2018-09-02T10:10:46.171Z,17.17
2018-09-02T10:11:46.231Z,17.14
2018-09-02T10:12:46.042Z,17.13
2018-09-02T10:13:46.052Z,17.05
2018-09-02T10:14:46.093Z,17.04
2018-09-02T10:15:46.029Z,17.13
2018-09-02T10:16:46.049Z,17.13
2018-09-02T10:17:46.082Z,17.17
2018-09-02T10:18:46.056Z,17.1
2018-09-02T10:19:46.600Z,17.14
2018-09-02T10:20:46.338Z,17.13
2018-09-02T10:21:46.077Z,17.12
2018-09-02T10:22:46.078Z,17.02
2018-09-02T10:23:46.058Z,17.13
2018-09-02T10:24:46.055Z,17.14
2018-09-02T10:26:02.787Z,17.17
2018-09-02T10:27:03.101Z,17.13
2018-09-02T10:28:02.759Z,17.04
2018-09-02T10:29:02.805Z,17.1
2018-09-02T10:30:02.812Z,17.16
2018-09-02T10:31:02.819Z,17.07
2018-09-02T10:32:02.793Z,17.12
2018-09-02T10:33:02.837Z,17.07
2018-09-02T10:34:02.822Z,17.02
2018-09-02T10:35:02.844Z,17.09
2018-09-02T10:36:02.826Z,17.05
2018-09-02T10:37:02.822Z,17.09
2018-09-02T10:38:02.967Z,17.13
2018-09-02T10:39:02.805Z,17.09
2018-09-02T10:40:02.845Z,17.13
2018-09-02T10:41:02.866Z,17.22
2018-09-02T10:42:02.822Z,17.16
2018-09-02T10:43:02.829Z,17.32
2018-09-02T10:44:02.870Z,17.37
2018-09-02T10:45:02.808Z,17.41
2018-09-02T10:46:02.826Z,17.52
2018-09-02T10:47:02.823Z,17.39
2018-09-02T10:48:02.861Z,17.44
2018-09-02T10:49:02.834Z,17.35
2018-09-02T10:50:02.840Z,17.5
2018-09-02T10:51:04.223Z,17.49
2018-09-02T10:52:02.855Z,17.44
2018-09-02T10:53:02.971Z,17.59
2018-09-02T10:54:02.835Z,17.52
2018-09-02T10:55:02.837Z,17.49
2018-09-02T10:56:02.879Z,17.52
2018-09-02T10:57:03.228Z,17.65
2018-09-02T10:58:02.873Z,17.6
2018-09-02T10:59:02.868Z,17.76
2018-09-02T11:00:02.885Z,17.78
2018-09-02T11:01:02.889Z,17.86
2018-09-02T11:02:02.929Z,17.82
2018-09-02T11:03:02.928Z,17.9
2018-09-02T11:04:02.878Z,17.95
2018-09-02T11:05:02.912Z,17.9
2018-09-02T11:06:02.899Z,18.02
2018-09-02T11:07:02.960Z,17.95
2018-09-02T11:08:03.100Z,17.87
2018-09-02T11:09:02.904Z,17.95
2018-09-02T11:10:03.044Z,18
2018-09-02T11:11:02.917Z,18
2018-09-02T11:12:02.890Z,18
2018-09-02T11:13:03.027Z,18
2018-09-02T11:14:03.063Z,18.02
2018-09-02T11:15:02.917Z,18.05
2018-09-02T11:16:02.913Z,17.95
2018-09-02T11:17:02.960Z,17.95
2018-09-02T11:18:03.036Z,18.05
2018-09-02T11:19:03.009Z,18.06
2018-09-02T11:20:02.877Z,18.03
2018-09-02T11:21:02.906Z,18.05
2018-09-02T11:22:02.961Z,18.08
2018-09-02T11:23:02.884Z,18.05
2018-09-02T11:24:02.893Z,18.23
2018-09-02T11:25:02.901Z,18.02
2018-09-02T11:26:03.296Z,18.05
2018-09-02T11:27:02.911Z,18.06
2018-09-02T11:28:02.955Z,18.03
2018-09-02T11:29:02.891Z,18.03
2018-09-02T11:30:02.900Z,18.02
2018-09-02T11:31:02.909Z,18.11
2018-09-02T11:32:02.949Z,17.97
2018-09-02T11:33:02.956Z,18.05
2018-09-02T11:34:03.053Z,17.91
2018-09-02T11:35:02.986Z,17.84
2018-09-02T11:36:02.978Z,18
2018-09-02T11:37:02.907Z,18.03
2018-09-02T11:38:02.952Z,18.02
2018-09-02T11:39:02.929Z,18.06
2018-09-02T11:40:02.968Z,17.82
2018-09-02T11:41:02.912Z,17.9
2018-09-02T11:42:02.948Z,17.79
2018-09-02T11:43:02.952Z,17.86
2018-09-02T11:44:02.920Z,17.82
2018-09-02T11:45:03.139Z,17.76
2018-09-02T11:46:02.953Z,17.71
2018-09-02T11:47:03.130Z,17.69
2018-09-02T11:48:02.960Z,17.78
2018-09-02T11:49:02.952Z,17.65
2018-09-02T11:50:02.931Z,17.66
2018-09-02T11:51:02.972Z,17.66
2018-09-02T11:52:02.943Z,17.78
2018-09-02T11:53:02.991Z,17.82
2018-09-02T11:54:02.952Z,17.82
2018-09-02T11:55:03.067Z,17.82
2018-09-02T11:56:02.965Z,17.76
2018-09-02T11:57:03.176Z,17.9
2018-09-02T11:58:02.955Z,17.79
2018-09-02T11:59:03.001Z,17.84
2018-09-02T12:00:02.965Z,17.8
2018-09-02T12:01:03.012Z,17.86
2018-09-02T12:02:03.009Z,17.82
2018-09-02T12:03:02.977Z,17.8
2018-09-02T12:04:03.164Z,17.82
2018-09-02T12:05:03.031Z,17.76
2018-09-02T12:06:02.967Z,17.82
2018-09-02T12:07:02.983Z,17.87
2018-09-02T12:08:03.005Z,17.86
2018-09-02T12:09:03.042Z,17.9
2018-09-02T12:10:02.956Z,17.93
2018-09-02T12:11:04.254Z,17.93
2018-09-02T12:12:02.967Z,17.86
2018-09-02T12:13:03.013Z,17.87
2018-09-02T12:14:03.032Z,17.79
2018-09-02T12:15:03.063Z,17.72
2018-09-02T12:16:02.995Z,17.73
2018-09-02T12:17:03.055Z,17.86
2018-09-02T12:18:02.968Z,17.79
2018-09-02T12:19:03.562Z,17.93
2018-09-02T12:20:02.985Z,17.88
2018-09-02T12:21:03.031Z,17.84
2018-09-02T12:22:03.069Z,17.88
2018-09-02T12:23:02.972Z,17.79
2018-09-02T12:24:03.091Z,17.79
2018-09-02T12:25:02.983Z,17.93
2018-09-02T12:26:03.027Z,17.9
2018-09-02T12:27:02.997Z,17.9
2018-09-02T12:28:03.038Z,17.93
2018-09-02T12:29:03.105Z,17.91
2018-09-02T12:30:02.984Z,17.86
2018-09-02T12:31:02.990Z,17.95
2018-09-02T12:32:03.028Z,17.88
2018-09-02T12:33:03.037Z,17.84
2018-09-02T12:34:03.048Z,17.84
2018-09-02T12:35:03.048Z,17.93
2018-09-02T12:36:03.022Z,17.8
2018-09-02T12:37:03.104Z,17.88
2018-09-02T12:38:06.961Z,17.82
2018-09-02T12:39:03.048Z,17.9
2018-09-02T12:40:03.060Z,17.8
2018-09-02T12:41:03.129Z,17.86
2018-09-02T12:42:03.092Z,17.86
2018-09-02T12:43:03.081Z,17.98
2018-09-02T12:44:03.046Z,17.93
2018-09-02T12:45:03.019Z,17.95
2018-09-02T12:46:03.093Z,18.09
2018-09-02T12:47:03.024Z,18.13
2018-09-02T12:48:03.236Z,18.05
2018-09-02T12:49:03.081Z,18.11
2018-09-02T12:50:03.053Z,18.09
2018-09-02T12:51:03.027Z,17.97
2018-09-02T12:52:03.059Z,17.95
2018-09-02T12:53:03.096Z,18.05
2018-09-02T12:54:03.074Z,18.05
2018-09-02T12:55:03.172Z,18.03
2018-09-02T12:56:03.063Z,18.11
2018-09-02T12:57:03.082Z,18.02
2018-09-02T12:58:03.066Z,18.02
2018-09-02T12:59:03.044Z,17.91
2018-09-02T13:00:03.039Z,17.93
2018-09-02T13:01:03.138Z,17.95
2018-09-02T13:02:03.126Z,17.94
2018-09-02T13:03:03.095Z,17.87
2018-09-02T13:04:03.122Z,17.88
2018-09-02T13:05:03.052Z,17.94
2018-09-02T13:06:03.080Z,17.87
2018-09-02T13:07:03.094Z,17.94
2018-09-02T13:08:03.077Z,18
2018-09-02T13:09:03.152Z,18.05
2018-09-02T13:10:03.107Z,18
2018-09-02T13:11:03.096Z,17.95
2018-09-02T13:12:03.086Z,17.98
2018-09-02T13:13:03.104Z,17.95
2018-09-02T13:14:03.100Z,17.93
2018-09-02T13:15:03.071Z,18.08
2018-09-02T13:16:03.219Z,18
2018-09-02T13:17:03.299Z,18.03
2018-09-02T13:18:03.302Z,18.02
2018-09-02T13:19:45.270Z,18
2018-09-02T13:20:03.104Z,18.03
2018-09-02T13:21:03.526Z,17.94
2018-09-02T13:22:03.276Z,18.03
2018-09-02T13:23:03.224Z,18.05
2018-09-02T13:24:03.391Z,18.23
2018-09-02T13:25:03.143Z,17.98
2018-09-02T13:26:40.351Z,18.19
2018-09-02T13:27:40.367Z,18.15
2018-09-02T13:28:40.328Z,18.15
2018-09-02T13:29:40.540Z,18.13
2018-09-02T13:30:40.480Z,18.18
2018-09-02T13:31:40.455Z,18.08
2018-09-02T13:32:40.541Z,18.03
2018-09-02T13:33:40.850Z,18.16
2018-09-02T13:34:40.464Z,18.12
2018-09-02T13:35:40.419Z,18.23
2018-09-02T13:36:40.348Z,18.15
2018-09-02T13:37:40.389Z,18.21